Time,TemperatureF,DewpointF,PressureIn,WindDirection,WindDirectionDegrees,WindSpeedMPH,WindSpeedGustMPH,Humidity,HourlyPrecipIn,Conditions,Clouds,dailyrainin,SolarRadiationWatts/m^2,SoftwareType,DateUTC
2013-08-05 00:02:00,62.0,54.0,-100.00,NE,47,2.0,3.0,74,0.00,,,0.00,0.000000,,2013-08-05 07:02:00,
2013-08-05 00:33:00,61.0,54.0,-100.00,ENE,66,1.0,3.0,77,0.00,,,0.00,0.000000,,2013-08-05 07:33:00,
2013-08-05 00:43:00,61.0,54.0,-100.00,ENE,66,1.0,3.0,77,0.00,,,0.00,0.000000,,2013-08-05 07:43:00,
2013-08-05 00:53:00,61.0,54.0,-100.00,ENE,66,1.0,3.0,77,0.00,,,0.00,0.000000,,2013-08-05 07:53:00,
2013-08-05 01:02:00,61.0,54.0,-100.00,ENE,66,1.0,3.0,77,0.00,,,0.00,0.000000,,2013-08-05 08:02:00,
2013-08-05 01:34:00,61.0,54.0,-100.00,NE,44,2.0,3.0,78,0.00,,,0.00,0.000000,,2013-08-05 08:34:00,
2013-08-05 01:51:00,61.0,54.0,-100.00,NE,44,2.0,3.0,78,0.00,,,0.00,0.000000,,2013-08-05 08:51:00,
2013-08-05 02:02:00,61.0,54.0,-100.00,NE,44,2.0,3.0,78,0.00,,,0.00,0.000000,,2013-08-05 09:02:00,
2013-08-05 02:48:00,60.0,54.0,-100.00,ENE,62,1.0,3.0,80,0.00,,,0.00,0.000000,,2013-08-05 09:48:00,
2013-08-05 02:53:00,60.0,54.0,-100.00,ENE,62,1.0,3.0,80,0.00,,,0.00,0.000000,,2013-08-05 09:53:00,
2013-08-05 03:35:00,59.0,54.0,-100.00,East,90,0.0,3.0,82,0.00,,,0.00,0.000000,,2013-08-05 10:35:00,
2013-08-05 03:49:00,59.0,54.0,-100.00,East,90,0.0,3.0,82,0.00,,,0.00,0.000000,,2013-08-05 10:49:00,
2013-08-05 04:03:00,59.0,54.0,-100.00,East,90,0.0,3.0,82,0.00,,,0.00,0.000000,,2013-08-05 11:03:00,
2013-08-05 04:58:00,58.0,54.0,-100.00,NE,54,2.0,3.0,86,0.00,,,0.00,0.000000,,2013-08-05 11:58:00,
2013-08-05 05:34:00,58.0,54.0,-100.00,ENE,62,1.0,3.0,85,0.00,,,0.00,0.000000,,2013-08-05 12:34:00,
2013-08-05 05:58:00,58.0,54.0,-100.00,ENE,62,1.0,3.0,85,0.00,,,0.00,0.000000,,2013-08-05 12:58:00,
2013-08-05 06:39:00,58.0,54.0,-100.00,NE,51,1.0,3.0,85,0.00,,,-99.99,1.000000,,2013-08-05 13:39:00,
2013-08-05 06:45:00,58.0,54.0,-100.00,NE,51,1.0,3.0,85,0.00,,,-99.99,1.000000,,2013-08-05 13:45:00,
2013-08-05 06:54:00,58.0,54.0,-100.00,NE,51,1.0,3.0,85,0.00,,,-99.99,1.000000,,2013-08-05 13:54:00,
2013-08-05 07:03:00,58.0,54.0,-100.00,NE,51,1.0,3.0,85,0.00,,,-99.99,1.000000,,2013-08-05 14:03:00,
2013-08-05 07:48:00,59.0,54.0,-100.00,NE,50,1.0,2.0,85,0.00,,,0.00,12.000000,,2013-08-05 14:48:00,
2013-08-05 07:54:00,59.0,54.0,-100.00,NE,50,1.0,2.0,85,0.00,,,0.00,12.000000,,2013-08-05 14:54:00,
2013-08-05 08:03:00,59.0,54.0,-100.00,NE,50,1.0,2.0,85,0.00,,,0.00,12.000000,,2013-08-05 15:03:00,
2013-08-05 08:49:00,60.0,55.0,-100.00,NNE,15,0.0,2.0,84,0.00,,,0.00,22.000000,,2013-08-05 15:49:00,
2013-08-05 08:58:00,60.0,55.0,-100.00,NNE,15,0.0,2.0,84,0.00,,,0.00,22.000000,,2013-08-05 15:58:00,
2013-08-05 09:45:00,72.0,59.0,-100.00,WNW,303,1.0,4.0,64,0.00,,,0.00,338.000000,,2013-08-05 16:45:00,
2013-08-05 09:58:00,72.0,59.0,-100.00,WNW,303,1.0,4.0,64,0.00,,,0.00,338.000000,,2013-08-05 16:58:00,
2013-08-05 10:50:00,72.0,58.0,-100.00,NW,308,3.0,6.0,61,0.00,,,0.00,552.000000,,2013-08-05 17:50:00,
2013-08-05 10:58:00,72.0,58.0,-100.00,NW,308,3.0,6.0,61,0.00,,,0.00,552.000000,,2013-08-05 17:58:00,
2013-08-05 11:03:00,72.0,58.0,-100.00,NW,308,3.0,6.0,61,0.00,,,0.00,552.000000,,2013-08-05 18:03:00,
2013-08-05 11:45:00,74.0,58.0,-100.00,WNW,296,4.0,9.0,57,0.00,,,0.00,697.000000,,2013-08-05 18:45:00,
2013-08-05 11:54:00,74.0,58.0,-100.00,WNW,296,4.0,9.0,57,0.00,,,0.00,697.000000,,2013-08-05 18:54:00,
2013-08-05 12:39:00,75.0,58.0,-100.00,WNW,299,5.0,10.0,55,0.00,,,0.00,805.000000,,2013-08-05 19:39:00,
2013-08-05 12:53:00,75.0,58.0,-100.00,WNW,299,5.0,10.0,55,0.00,,,0.00,805.000000,,2013-08-05 19:53:00,
2013-08-05 13:03:00,75.0,58.0,-100.00,WNW,299,5.0,10.0,55,0.00,,,0.00,805.000000,,2013-08-05 20:03:00,
2013-08-05 13:48:00,78.0,57.0,-100.00,WNW,303,4.0,11.0,48,0.00,,,0.00,869.000000,,2013-08-05 20:48:00,
2013-08-05 13:58:00,78.0,57.0,-100.00,WNW,303,4.0,11.0,48,0.00,,,0.00,869.000000,,2013-08-05 20:58:00,
2013-08-05 14:34:00,79.0,55.0,-100.00,WNW,298,5.0,12.0,44,0.00,,,0.00,883.000000,,2013-08-05 21:34:00,
2013-08-05 14:48:00,79.0,55.0,-100.00,WNW,298,5.0,12.0,44,0.00,,,0.00,883.000000,,2013-08-05 21:48:00,
2013-08-05 14:53:00,79.0,55.0,-100.00,WNW,298,5.0,12.0,44,0.00,,,0.00,883.000000,,2013-08-05 21:53:00,
2013-08-05 15:03:00,79.0,55.0,-100.00,WNW,298,5.0,12.0,44,0.00,,,0.00,883.000000,,2013-08-05 22:03:00,
2013-08-05 15:38:00,80.0,53.0,-100.00,WNW,289,5.0,12.0,40,0.00,,,0.00,847.000000,,2013-08-05 22:38:00,
2013-08-05 15:44:00,80.0,53.0,-100.00,WNW,289,5.0,12.0,40,0.00,,,0.00,847.000000,,2013-08-05 22:44:00,
2013-08-05 15:53:00,80.0,53.0,-100.00,WNW,289,5.0,12.0,40,0.00,,,0.00,847.000000,,2013-08-05 22:53:00,
2013-08-05 16:02:00,80.0,53.0,-100.00,WNW,289,5.0,12.0,40,0.00,,,0.00,847.000000,,2013-08-05 23:02:00,
2013-08-05 16:46:00,81.0,54.0,-100.00,West,270,4.0,12.0,40,0.00,,,0.00,763.000000,,2013-08-05 23:46:00,
2013-08-05 17:02:00,81.0,54.0,-100.00,West,270,4.0,12.0,40,0.00,,,0.00,763.000000,,2013-08-06 00:02:00,
2013-08-05 17:45:00,82.0,55.0,-100.00,WNW,283,3.0,12.0,40,0.00,,,0.00,632.000000,,2013-08-06 00:45:00,
2013-08-05 17:57:00,82.0,55.0,-100.00,WNW,283,3.0,12.0,40,0.00,,,0.00,632.000000,,2013-08-06 00:57:00,
2013-08-05 18:03:00,82.0,55.0,-100.00,WNW,283,3.0,12.0,40,0.00,,,0.00,632.000000,,2013-08-06 01:03:00,
2013-08-05 18:42:00,81.0,54.0,-100.00,West,279,4.0,8.0,39,0.00,,,0.00,417.000000,,2013-08-06 01:42:00,
2013-08-05 18:51:00,81.0,54.0,-100.00,West,279,4.0,8.0,39,0.00,,,0.00,417.000000,,2013-08-06 01:51:00,
2013-08-05 18:58:00,81.0,54.0,-100.00,West,279,4.0,8.0,39,0.00,,,0.00,417.000000,,2013-08-06 01:58:00,
2013-08-05 19:04:00,81.0,54.0,-100.00,West,279,4.0,8.0,39,0.00,,,0.00,417.000000,,2013-08-06 02:04:00,
2013-08-05 19:33:00,78.0,55.0,-100.00,WNW,288,3.0,9.0,45,0.00,,,0.00,300.000000,,2013-08-06 02:33:00,
2013-08-05 19:52:00,78.0,55.0,-100.00,WNW,288,3.0,9.0,45,0.00,,,0.00,300.000000,,2013-08-06 02:52:00,
2013-08-05 20:01:00,78.0,55.0,-100.00,WNW,288,3.0,9.0,45,0.00,,,0.00,300.000000,,2013-08-06 03:01:00,
2013-08-05 20:35:00,72.0,53.0,-100.00,NW,307,2.0,8.0,52,0.00,,,0.00,111.000000,,2013-08-06 03:35:00,
2013-08-05 20:45:00,72.0,53.0,-100.00,NW,307,2.0,8.0,52,0.00,,,0.00,111.000000,,2013-08-06 03:45:00,
2013-08-05 20:52:00,72.0,53.0,-100.00,NW,307,2.0,8.0,52,0.00,,,0.00,111.000000,,2013-08-06 03:52:00,
2013-08-05 21:01:00,72.0,53.0,-100.00,NW,307,2.0,8.0,52,0.00,,,0.00,111.000000,,2013-08-06 04:01:00,
2013-08-05 21:33:00,66.0,55.0,-100.00,NNE,13,2.0,6.0,68,0.00,,,0.00,5.000000,,2013-08-06 04:33:00,
2013-08-05 21:44:00,66.0,55.0,-100.00,NNE,13,2.0,6.0,68,0.00,,,0.00,5.000000,,2013-08-06 04:44:00,
2013-08-05 21:53:00,66.0,55.0,-100.00,NNE,13,2.0,6.0,68,0.00,,,0.00,5.000000,,2013-08-06 04:53:00,
2013-08-05 22:02:00,66.0,55.0,-100.00,NNE,13,2.0,6.0,68,0.00,,,0.00,5.000000,,2013-08-06 05:02:00,
2013-08-05 22:32:00,63.0,56.0,-100.00,NNE,29,2.0,4.0,78,0.00,,,0.00,0.000000,,2013-08-06 05:32:00,
2013-08-05 22:43:00,63.0,56.0,-100.00,NNE,29,2.0,4.0,78,0.00,,,0.00,0.000000,,2013-08-06 05:43:00,
2013-08-05 22:53:00,63.0,56.0,-100.00,NNE,29,2.0,4.0,78,0.00,,,0.00,0.000000,,2013-08-06 05:53:00,
2013-08-05 23:01:00,63.0,56.0,-100.00,NNE,29,2.0,4.0,78,0.00,,,0.00,0.000000,,2013-08-06 06:01:00,
2013-08-05 23:43:00,62.0,56.0,-100.00,NE,50,2.0,3.0,80,0.00,,,0.00,0.000000,,2013-08-06 06:43:00,
2013-08-05 23:52:00,62.0,56.0,-100.00,NE,50,2.0,3.0,80,0.00,,,0.00,0.000000,,2013-08-06 06:52:00,